Time;durP1;ratioP1;P1;durP2;ratioP2;P2;SDS_P1;SDS_P2;PMS_P1;PMS_P2;Temp;Humidity;BMP_temperature;BMP_pressure;BME280_temperature;BME280_humidity;BME280_pressure;Samples;Min_cycle;Max_cycle;Signal;HPM_P1;HPM_P2
2022/08/08 00:02:19;;;;;;;5.43;3.90;;;;;;;27.49;50.46;101173.59;4909745;29;20056;-85
2022/08/08 00:05:05;;;;;;;3.90;3.60;;;;;;;27.56;50.04;101162.59;4896428;29;20099;-84
2022/08/08 00:07:49;;;;;;;4.38;3.97;;;;;;;27.04;49.88;101075.97;4911884;29;20087;-83
2022/08/08 00:10:49;;;;;;;;;;;;;;;27.45;50.39;101167.81;4912594;29;20068;-83
2022/08/08 00:13:30;;;;;;;4.45;4.05;;;;;;;27.40;50.07;101173.09;4911209;29;20406;-83
2022/08/08 00:16:35;;;;;;;8.90;4.07;;;;;;;27.11;50.76;101139.34;4895277;29;20056;-82
2022/08/08 00:19:25;;;;;;;3.88;3.58;;;;;;;27.37;50.26;101180.94;4913468;29;20147;-84
2022/08/08 00:21:56;;;;;;;4.05;3.63;;;;;;;27.21;50.12;101144.28;4911455;29;20059;-83
2022/08/08 00:24:34;;;;;;;3.92;3.47;;;;;;;27.40;50.01;101156.75;4927684;29;20052;-83
2022/08/08 00:27:11;;;;;;;4.63;4.13;;;;;;;27.35;50.02;101155.81;4911338;29;20091;-83
2022/08/08 00:30:01;;;;;;;6.35;3.90;;;;;;;27.29;50.15;101157.59;4910734;29;20321;-82
2022/08/08 00:32:28;;;;;;;3.88;3.58;;;;;;;27.36;50.39;101196.47;4926136;29;20056;-83
2022/08/08 00:35:19;;;;;;;4.03;3.70;;;;;;;27.35;50.18;101200.25;4929547;28;20055;-84
2022/08/08 00:38:44;;;;;;;4.28;3.88;;;;;;;26.98;50.72;101143.13;4931339;28;20110;-84
2022/08/08 00:41:32;;;;;;;4.68;4.20;;;;;;;27.28;50.24;101194.06;4877380;29;20056;-84
2022/08/08 00:44:58;;;;;;;4.40;3.63;;;;;;;27.22;50.46;101184.09;4864664;29;20148;-84
2022/08/08 00:47:41;;;;;;;4.45;3.83;;;;;;;27.12;51.08;101176.47;4916999;29;20150;-85
2022/08/08 00:50:55;;;;;;;5.45;4.05;;;;;;;27.12;51.07;101167.47;4931555;29;20130;-85
2022/08/08 00:53:35;;;;;;;4.47;4.07;;;;;;;27.00;50.53;101141.00;4933228;29;20660;-83
2022/08/08 00:56:41;;;;;;;4.40;4.10;;;;;;;27.18;50.96;101178.25;4931089;29;20056;-83
2022/08/08 00:59:44;;;;;;;4.80;4.05;;;;;;;27.19;50.78;101181.84;4920131;29;20181;-83
2022/08/08 01:02:27;;;;;;;7.40;4.20;;;;;;;27.15;50.79;101177.91;4919729;29;20068;-83
2022/08/08 01:05:39;;;;;;;4.22;3.83;;;;;;;27.05;51.25;101179.28;4930948;29;20063;-84
2022/08/08 01:08:37;;;;;;;4.30;3.90;;;;;;;26.94;51.47;101180.06;4931630;29;20532;-84
2022/08/08 01:11:49;;;;;;;4.20;3.80;;;;;;;26.97;51.44;101182.34;4921526;29;20569;-84
2022/08/08 01:14:42;;;;;;;5.30;4.80;;;;;;;26.58;51.70;101124.63;4934786;29;20195;-84
2022/08/08 01:17:19;;;;;;;;;;;;;;;27.03;51.33;101175.94;4933158;29;20056;-85
2022/08/08 01:20:19;;;;;;;5.35;4.88;;;;;;;26.86;52.10;101180.38;4920365;29;19927;-83
2022/08/08 01:23:00;;;;;;;5.97;5.47;;;;;;;26.91;52.14;101185.97;4933881;29;20051;-84
2022/08/08 01:25:31;;;;;;;6.00;5.30;;;;;;;26.92;51.92;101184.06;4918130;29;20570;-85
2022/08/08 01:28:20;;;;;;;6.20;5.60;;;;;;;26.82;52.08;101187.34;4919856;28;20174;-84
2022/08/08 01:31:04;;;;;;;5.93;5.32;;;;;;;26.71;52.52;101179.97;4919650;28;20569;-86
2022/08/08 01:34:13;;;;;;;6.18;5.57;;;;;;;26.52;53.00;101141.84;4931960;29;20552;-83
2022/08/08 01:36:45;;;;;;;7.90;6.07;;;;;;;26.66;53.14;101179.84;4932670;29;20277;-84
2022/08/08 01:39:33;;;;;;;6.63;5.85;;;;;;;26.55;53.43;101174.06;4932489;29;20055;-83
2022/08/08 01:42:15;;;;;;;6.45;5.85;;;;;;;26.38;53.68;101168.38;4917570;29;20443;-83
2022/08/08 01:44:58;;;;;;;6.65;6.03;;;;;;;26.50;53.54;101176.63;4933412;29;20463;-84
2022/08/08 01:47:44;;;;;;;7.78;6.93;;;;;;;25.99;54.02;101101.66;4933975;29;20142;-84
2022/08/08 01:50:59;;;;;;;6.45;5.90;;;;;;;26.51;53.85;101166.59;4940119;29;20087;-85
2022/08/08 01:54:05;;;;;;;7.20;6.13;;;;;;;26.30;54.01;101138.78;4928535;29;20048;-85
2022/08/08 01:57:13;;;;;;;9.35;6.63;;;;;;;25.90;54.13;101089.41;4912888;29;20189;-84
2022/08/08 01:59:43;;;;;;;7.85;7.05;;;;;;;26.19;53.96;101132.22;4916814;29;20599;-83
2022/08/08 02:02:53;;;;;;;8.27;7.45;;;;;;;24.87;54.59;100939.47;4924107;29;20052;-84
2022/08/08 02:05:44;;;;;;;8.88;7.97;;;;;;;26.36;54.43;101183.28;4925218;29;20464;-85
2022/08/08 02:08:46;;;;;;;8.50;6.80;;;;;;;26.42;54.24;101179.66;4924211;29;20055;-84
2022/08/08 02:11:42;;;;;;;8.50;7.32;;;;;;;26.25;55.03;101173.19;4925326;29;20079;-83
2022/08/08 02:14:39;;;;;;;7.00;6.38;;;;;;;26.05;54.39;101113.56;4923205;29;20063;-83
2022/08/08 02:17:40;;;;;;;8.02;7.15;;;;;;;26.02;54.27;101114.81;4923190;29;20251;-85
2022/08/08 02:20:27;;;;;;;10.35;8.30;;;;;;;26.36;54.30;101161.50;4921431;29;20379;-84
2022/08/08 02:23:23;;;;;;;8.10;7.30;;;;;;;26.28;54.48;101145.50;4891545;29;20074;-85
2022/08/08 02:26:16;;;;;;;8.15;7.45;;;;;;;26.51;54.29;101180.22;4905249;29;20985;-85
2022/08/08 02:29:12;;;;;;;9.98;8.98;;;;;;;26.49;54.14;101158.66;4922358;28;20636;-84
2022/08/08 02:32:13;;;;;;;9.27;8.45;;;;;;;26.55;54.34;101182.25;4920423;29;20056;-83
2022/08/08 02:35:07;;;;;;;11.27;8.10;;;;;;;26.62;54.11;101165.84;4909518;29;20478;-82
2022/08/08 02:37:37;;;;;;;9.05;7.88;;;;;;;26.65;53.96;101162.66;4924309;29;20063;-83
2022/08/08 02:40:41;;;;;;;8.25;7.55;;;;;;;26.69;54.13;101152.97;4922694;29;20573;-84
2022/08/08 02:43:33;;;;;;;9.75;8.73;;;;;;;26.67;53.98;101146.09;4923542;29;20063;-84
2022/08/08 02:46:32;;;;;;;10.40;9.40;;;;;;;26.17;53.83;101057.31;4909753;29;20565;-82
2022/08/08 02:49:07;;;;;;;12.32;9.02;;;;;;;26.65;53.94;101146.31;4910664;29;20182;-83
2022/08/08 02:51:59;;;;;;;9.35;8.43;;;;;;;26.67;53.83;101132.47;4923906;29;20059;-83
2022/08/08 02:54:48;;;;;;;10.20;9.20;;;;;;;26.70;53.74;101153.78;4921960;29;20166;-84
2022/08/08 02:57:20;;;;;;;8.50;7.60;;;;;;;26.67;54.21;101151.53;4923835;29;20504;-84
2022/08/08 03:00:14;;;;;;;8.43;7.63;;;;;;;26.69;54.04;101146.69;4923645;28;20112;-82
2022/08/08 03:03:24;;;;;;;8.57;7.55;;;;;;;26.68;53.97;101134.97;4922965;28;20790;-82
2022/08/08 03:06:29;;;;;;;7.90;7.20;;;;;;;26.66;54.22;101136.28;4921744;29;20055;-84
2022/08/08 03:09:45;;;;;;;9.02;6.47;;;;;;;26.60;54.29;101127.97;4924231;29;20142;-85
2022/08/08 03:12:38;;;;;;;8.60;7.75;;;;;;;26.65;54.38;101135.41;4924085;29;20056;-84
2022/08/08 03:15:50;;;;;;;9.35;8.43;;;;;;;26.60;54.53;101129.84;4921176;29;20044;-84
2022/08/08 03:18:44;;;;;;;10.07;8.82;;;;;;;26.31;53.98;101074.28;4922985;29;20150;-84
2022/08/08 03:21:13;;;;;;;10.60;9.30;;;;;;;26.42;54.04;101076.22;4924740;28;20200;-82
2022/08/08 03:23:41;;;;;;;9.00;8.10;;;;;;;26.73;54.05;101126.94;4925040;28;20059;-83
2022/08/08 03:26:31;;;;;;;8.85;7.95;;;;;;;26.47;54.25;101095.44;4909900;29;20063;-84
2022/08/08 03:29:17;;;;;;;9.10;8.13;;;;;;;25.78;54.12;100989.53;4907839;29;20463;-82
2022/08/08 03:34:40;;;;;;;8.70;7.90;;;;;;;26.06;54.24;101039.03;4909969;29;20048;-83
2022/08/08 03:37:16;;;;;;;9.52;8.10;;;;;;;26.37;54.51;101090.53;4923537;29;20059;-83
2022/08/08 03:40:04;;;;;;;9.00;8.10;;;;;;;26.45;54.41;101092.09;4909167;29;20062;-85
2022/08/08 03:42:37;;;;;;;11.55;9.07;;;;;;;26.60;54.27;101111.63;4923311;29;20432;-84
2022/08/08 03:45:13;;;;;;;11.18;9.40;;;;;;;26.77;53.88;101135.47;4923833;29;20155;-84
2022/08/08 03:48:04;;;;;;;9.90;8.77;;;;;;;25.29;54.38;100904.41;4923015;29;20408;-84
2022/08/08 03:50:34;;;;;;;9.57;8.32;;;;;;;26.21;54.69;101064.78;4917210;29;20456;-84
2022/08/08 03:53:13;;;;;;;10.98;9.88;;;;;;;25.82;54.47;101005.38;4931475;29;20052;-86
2022/08/08 03:55:50;;;;;;;11.70;10.48;;;;;;;26.23;54.74;101089.84;4910670;29;20077;-85
2022/08/08 03:58:30;;;;;;;10.43;9.48;;;;;;;26.27;54.70;101105.75;4908796;29;20052;-82
2022/08/08 04:01:04;;;;;;;13.23;10.20;;;;;;;26.39;54.68;101126.53;4923003;29;20055;-81
2022/08/08 04:03:50;;;;;;;12.80;11.20;;;;;;;26.10;54.56;101084.59;4921779;29;20188;-84
2022/08/08 04:06:27;;;;;;;17.65;10.48;;;;;;;26.39;54.53;101147.47;4922359;29;20066;-83
2022/08/08 04:08:58;;;;;;;17.40;11.82;;;;;;;26.32;54.66;101135.84;4908558;29;20490;-83
2022/08/08 04:11:42;;;;;;;12.75;11.23;;;;;;;26.33;54.81;101153.81;4923450;28;20052;-85
2022/08/08 04:14:27;;;;;;;13.13;11.57;;;;;;;26.35;54.06;101162.59;4912255;29;20576;-84
2022/08/08 04:17:02;;;;;;;11.00;9.90;;;;;;;26.43;54.67;101187.63;4926724;29;20393;-86
2022/08/08 04:19:32;;;;;;;11.35;10.10;;;;;;;25.51;54.71;101037.94;4908149;29;20060;-84
2022/08/08 04:22:02;;;;;;;14.05;11.30;;;;;;;26.28;54.61;101161.81;4893036;29;20147;-83
2022/08/08 04:24:29;;;;;;;9.43;8.40;;;;;;;26.22;54.83;101153.53;4892912;29;20569;-84
2022/08/08 04:26:58;;;;;;;8.32;7.53;;;;;;;26.36;54.82;101175.13;4893909;29;20048;-84
2022/08/08 04:29:26;;;;;;;8.55;7.63;;;;;;;26.52;54.45;101190.84;4892843;29;20056;-84
2022/08/08 04:32:04;;;;;;;11.45;7.65;;;;;;;26.49;54.33;101182.31;4907806;29;20056;-84
2022/08/08 04:34:33;;;;;;;7.50;6.50;;;;;;;26.69;53.99;101201.16;4921628;29;20085;-83
2022/08/08 04:37:20;;;;;;;7.30;6.60;;;;;;;26.60;53.60;101187.88;4911175;29;20051;-85
2022/08/08 04:39:57;;;;;;;6.78;6.07;;;;;;;26.69;53.37;101201.16;4926147;29;20162;-84
2022/08/08 04:42:32;;;;;;;8.73;6.50;;;;;;;26.46;53.53;101163.69;4925718;29;20056;-82
2022/08/08 04:45:04;;;;;;;7.20;5.25;;;;;;;25.88;52.88;101058.91;4927010;29;20063;-84
2022/08/08 04:47:30;;;;;;;8.68;7.15;;;;;;;25.40;53.01;100972.63;4910879;29;20065;-84
2022/08/08 04:50:02;;;;;;;8.88;7.82;;;;;;;26.58;53.00;101162.75;4911303;29;20551;-85
2022/08/08 04:52:31;;;;;;;6.28;5.72;;;;;;;25.89;53.20;101055.94;4927211;29;20051;-85
2022/08/08 04:55:00;;;;;;;7.20;6.57;;;;;;;26.48;52.98;101150.69;4926543;29;20071;-85
2022/08/08 04:57:27;;;;;;;6.57;5.97;;;;;;;26.71;52.70;101177.25;4911035;29;20179;-85
2022/08/08 04:59:54;;;;;;;7.78;6.95;;;;;;;26.75;52.83;101173.84;4926794;29;20612;-84
2022/08/08 05:02:25;;;;;;;7.07;6.38;;;;;;;26.53;53.01;101168.06;4925905;29;20170;-85
2022/08/08 05:04:57;;;;;;;8.60;7.10;;;;;;;26.90;53.10;101225.19;4926670;29;20087;-85
2022/08/08 05:07:25;;;;;;;7.88;6.93;;;;;;;26.78;53.16;101216.97;4925610;29;20457;-85
2022/08/08 05:10:07;;;;;;;7.32;6.45;;;;;;;26.63;52.96;101171.06;4925215;29;20496;-83
2022/08/08 05:12:39;;;;;;;6.35;5.65;;;;;;;26.77;53.31;101209.00;4911474;29;20626;-85
2022/08/08 05:15:26;;;;;;;7.30;6.60;;;;;;;26.79;53.53;101204.16;4922667;29;20048;-86
2022/08/08 05:18:12;;;;;;;9.82;5.22;;;;;;;26.93;53.34;101240.25;4923831;29;20494;-85
2022/08/08 05:20:40;;;;;;;8.10;6.68;;;;;;;25.57;53.51;101017.19;4922897;29;20158;-85
2022/08/08 05:23:18;;;;;;;6.40;5.82;;;;;;;26.52;53.36;101165.53;4906075;29;20201;-85
2022/08/08 05:25:48;;;;;;;6.97;6.28;;;;;;;26.89;53.14;101211.78;4894952;29;20060;-85
2022/08/08 05:28:15;;;;;;;8.38;7.40;;;;;;;27.12;52.56;101230.13;4893881;29;20350;-85
2022/08/08 05:31:02;;;;;;;6.35;5.75;;;;;;;27.17;52.50;101242.00;4918510;28;20452;-86
2022/08/08 05:33:49;;;;;;;6.80;6.20;;;;;;;27.10;52.62;101235.00;4913728;29;20172;-86
2022/08/08 05:36:21;;;;;;;6.15;5.55;;;;;;;26.98;52.51;101211.25;4912149;29;20478;-84
2022/08/08 05:38:55;;;;;;;6.15;5.65;;;;;;;27.11;52.86;101239.38;4911421;29;20063;-85
2022/08/08 05:41:24;;;;;;;6.80;6.10;;;;;;;27.20;52.80;101247.00;4926634;29;20065;-84
2022/08/08 05:44:04;;;;;;;10.07;6.20;;;;;;;27.30;52.66;101241.00;4927009;29;20043;-84
2022/08/08 05:46:34;;;;;;;9.52;5.88;;;;;;;27.13;52.40;101215.44;4912681;29;20059;-86
2022/08/08 05:49:03;;;;;;;6.80;5.88;;;;;;;27.03;52.43;101186.84;4922608;29;20055;-85
2022/08/08 05:51:37;;;;;;;6.47;5.88;;;;;;;27.26;52.00;101207.13;4945984;28;20039;-85
2022/08/08 05:54:16;;;;;;;6.45;5.80;;;;;;;27.25;52.53;101228.06;4933101;29;20047;-86
2022/08/08 05:57:06;;;;;;;8.10;6.90;;;;;;;26.22;52.78;101039.22;4945081;28;20059;-85
2022/08/08 05:59:37;;;;;;;7.57;6.78;;;;;;;25.70;52.63;100956.38;4953120;28;20036;-85
2022/08/08 06:05:14;;;;;;;6.88;6.38;;;;;;;27.22;53.42;101192.28;4916166;29;20641;-83
2022/08/08 06:08:02;;;;;;;7.10;6.20;;;;;;;27.00;53.54;101176.41;4917413;29;20455;-84
2022/08/08 06:10:49;;;;;;;6.57;5.97;;;;;;;27.05;54.27;101194.81;4943678;28;20409;-86
2022/08/08 06:13:18;;;;;;;6.82;6.13;;;;;;;26.98;55.10;101200.34;4926771;28;20047;-86
2022/08/08 06:15:49;;;;;;;;;;;;;;;27.16;57.16;101244.94;4926683;29;20052;-85
2022/08/08 06:18:25;;;;;;;7.45;6.38;;;;;;;27.03;56.75;101208.66;4924802;28;19937;-86
2022/08/08 06:20:54;;;;;;;7.10;6.40;;;;;;;27.10;57.43;101230.38;4891304;29;20146;-85
2022/08/08 06:23:24;;;;;;;7.60;6.97;;;;;;;27.11;55.55;101210.22;4890933;29;20589;-86
2022/08/08 06:26:11;;;;;;;9.63;5.93;;;;;;;27.23;55.62;101251.16;4891205;29;20064;-87
2022/08/08 06:29:04;;;;;;;9.80;5.72;;;;;;;27.33;54.79;101256.06;4891156;29;20377;-84
2022/08/08 06:31:57;;;;;;;7.43;5.80;;;;;;;27.16;54.43;101244.94;4892708;29;20597;-82
2022/08/08 06:34:45;;;;;;;7.30;6.30;;;;;;;27.46;53.32;101264.88;4905679;29;20048;-81
2022/08/08 06:37:36;;;;;;;8.27;6.40;;;;;;;27.50;53.39;101265.22;4922796;29;20489;-83
2022/08/08 06:40:05;;;;;;;6.97;6.35;;;;;;;27.32;53.13;101252.50;4925283;29;20307;-83
2022/08/08 06:42:49;;;;;;;7.30;6.35;;;;;;;27.35;53.48;101267.56;4925470;29;20211;-83
2022/08/08 06:45:20;;;;;;;9.57;6.22;;;;;;;27.39;53.63;101277.78;4925915;28;20403;-81
2022/08/08 06:47:49;;;;;;;7.22;6.32;;;;;;;27.32;53.64;101262.59;4928347;29;20063;-83
2022/08/08 06:50:24;;;;;;;6.72;6.13;;;;;;;27.32;53.61;101268.88;4922327;29;20395;-82
2022/08/08 06:53:02;;;;;;;6.90;6.25;;;;;;;27.42;53.54;101287.38;4926738;28;20219;-82
2022/08/08 06:55:46;;;;;;;7.03;6.35;;;;;;;27.02;53.52;101234.25;4909835;29;20067;-80
2022/08/08 06:58:29;;;;;;;7.45;6.15;;;;;;;27.10;53.64;101240.44;4910929;28;20059;-82
2022/08/08 07:01:01;;;;;;;6.93;6.30;;;;;;;27.23;53.15;101271.06;4925055;29;20059;-83
2022/08/08 07:03:54;;;;;;;7.10;6.40;;;;;;;27.31;53.02;101280.84;4911420;29;20485;-82
2022/08/08 07:06:49;;;;;;;6.97;6.35;;;;;;;27.22;52.66;101265.88;4921619;29;20052;-83
2022/08/08 07:09:22;;;;;;;7.25;6.55;;;;;;;27.27;52.57;101275.00;4910432;29;20551;-83
2022/08/08 07:12:08;;;;;;;13.25;6.15;;;;;;;27.45;52.70;101298.69;4908766;29;20341;-81
2022/08/08 07:14:57;;;;;;;7.85;5.72;;;;;;;27.39;52.67;101299.59;4911312;29;20478;-82
2022/08/08 07:17:33;;;;;;;7.13;6.38;;;;;;;27.24;52.97;101280.09;4908809;29;20048;-83
2022/08/08 07:20:26;;;;;;;10.77;6.07;;;;;;;27.12;53.05;101271.00;4916351;28;20059;-82
2022/08/08 07:23:12;;;;;;;6.65;5.68;;;;;;;27.31;53.36;101294.47;4893655;29;20048;-82
2022/08/08 07:25:50;;;;;;;6.65;5.68;;;;;;;27.36;53.34;101297.34;4892294;29;20392;-82
2022/08/08 07:28:24;;;;;;;9.40;6.18;;;;;;;27.27;52.59;101285.09;4892451;29;20181;-82
2022/08/08 07:30:58;;;;;;;6.38;5.78;;;;;;;26.65;52.26;101178.97;4891258;29;20052;-83
2022/08/08 07:33:24;;;;;;;6.13;5.45;;;;;;;27.37;52.71;101289.97;4896865;29;20055;-82
2022/08/08 07:35:54;;;;;;;6.55;5.95;;;;;;;27.46;52.12;101288.59;4910547;29;20055;-82
2022/08/08 07:38:22;;;;;;;8.23;5.72;;;;;;;26.99;52.13;101212.91;4910707;29;20075;-87
2022/08/08 07:40:57;;;;;;;9.93;5.97;;;;;;;26.72;52.04;101173.47;4924302;29;20059;-86
2022/08/08 07:43:32;;;;;;;7.22;5.90;;;;;;;27.37;51.92;101285.34;4925031;29;20342;-85
2022/08/08 07:46:03;;;;;;;7.60;6.10;;;;;;;27.40;51.95;101284.88;4924586;29;20434;-85
2022/08/08 07:48:49;;;;;;;6.63;5.80;;;;;;;27.24;52.24;101266.47;4928374;29;20713;-85
2022/08/08 07:51:17;;;;;;;11.45;6.00;;;;;;;27.36;52.60;101289.16;4937431;29;20656;-85
2022/08/08 07:54:24;;;;;;;6.50;6.00;;;;;;;27.35;52.73;101290.19;4931979;28;20056;-83
2022/08/08 07:56:58;;;;;;;7.28;6.57;;;;;;;26.95;52.89;101227.22;4929702;29;20052;-86
2022/08/08 07:59:34;;;;;;;11.02;6.55;;;;;;;27.25;52.92;101277.13;4930500;28;20055;-85
2022/08/08 08:02:07;;;;;;;9.75;6.88;;;;;;;27.44;54.36;101309.81;4916729;29;20058;-85
2022/08/08 08:04:56;;;;;;;8.32;6.63;;;;;;;27.38;55.00;101303.41;4928282;29;20230;-86
2022/08/08 08:07:25;;;;;;;6.95;6.32;;;;;;;27.35;55.76;101292.94;4913882;29;20054;-85
2022/08/08 08:10:04;;;;;;;;;;;;;;;27.30;56.59;101273.72;4929040;29;20058;-84
2022/08/08 08:12:34;;;;;;;9.63;7.32;;;;;;;27.17;55.24;101257.53;4913847;29;19931;-84
2022/08/08 08:15:12;;;;;;;7.35;6.68;;;;;;;27.03;56.51;101225.00;4929146;29;20453;-86
2022/08/08 08:17:44;;;;;;;8.77;7.97;;;;;;;27.11;56.53;101215.66;4914111;29;20051;-82
2022/08/08 08:20:17;;;;;;;12.18;8.80;;;;;;;26.99;57.61;101196.56;4948920;29;20058;-83
2022/08/08 08:22:45;;;;;;;9.23;8.15;;;;;;;25.73;57.51;101007.56;4935217;29;20449;-83
2022/08/08 08:25:13;;;;;;;12.98;9.55;;;;;;;27.00;57.79;101238.25;4933827;29;20508;-85
2022/08/08 08:27:59;;;;;;;9.15;8.25;;;;;;;27.01;57.72;101248.91;4947699;29;20047;-85
2022/08/08 08:30:28;;;;;;;9.52;8.23;;;;;;;26.94;57.38;101250.88;4950209;29;20051;-84
2022/08/08 08:32:55;;;;;;;12.65;9.38;;;;;;;27.10;57.15;101278.59;4951355;28;20118;-83
2022/08/08 08:35:24;;;;;;;11.25;8.68;;;;;;;26.99;57.27;101253.78;4934489;29;20047;-83
2022/08/08 08:38:11;;;;;;;9.65;8.70;;;;;;;27.17;56.33;101257.53;4935997;29;20075;-83
2022/08/08 08:40:43;;;;;;;9.82;8.82;;;;;;;27.45;56.22;101290.50;4949119;29;20135;-84
2022/08/08 08:43:19;;;;;;;9.68;8.73;;;;;;;27.57;56.17;101295.97;4949265;29;20529;-85
2022/08/08 08:45:54;;;;;;;11.57;8.82;;;;;;;27.79;55.58;101290.81;4948767;28;20056;-84
2022/08/08 08:48:23;;;;;;;8.52;7.72;;;;;;;27.46;55.32;101229.44;4939238;29;20310;-82
2022/08/08 08:50:52;;;;;;;11.68;10.57;;;;;;;28.02;54.48;101295.50;4934923;29;20048;-84
2022/08/08 08:53:20;;;;;;;10.45;9.40;;;;;;;28.14;54.41;101300.97;4950806;28;20062;-84
2022/08/08 08:56:06;;;;;;;11.68;9.20;;;;;;;28.10;54.01;101306.06;4948183;28;20050;-84
2022/08/08 08:58:40;;;;;;;10.07;9.15;;;;;;;28.06;54.17;101309.50;4948514;28;20066;-84
2022/08/08 09:01:16;;;;;;;11.77;10.65;;;;;;;27.46;53.63;101196.72;4947587;29;20118;-83
2022/08/08 09:03:49;;;;;;;10.50;8.38;;;;;;;28.26;51.96;101311.91;4947626;29;20091;-82
2022/08/08 09:06:24;;;;;;;9.10;8.20;;;;;;;28.10;52.10;101302.50;4947985;28;20078;-83
2022/08/08 09:09:08;;;;;;;8.45;7.60;;;;;;;26.88;52.49;101090.28;4947243;28;20060;-83
2022/08/08 09:11:56;;;;;;;11.25;9.43;;;;;;;28.31;52.94;101328.41;4945421;28;20073;-82
2022/08/08 09:14:34;;;;;;;11.18;10.05;;;;;;;28.16;53.79;101301.56;4946527;28;20143;-82
2022/08/08 09:17:01;;;;;;;13.90;10.15;;;;;;;27.72;53.63;101216.47;4947611;28;20052;-86
2022/08/08 09:19:37;;;;;;;10.13;9.13;;;;;;;28.45;53.88;101329.88;4941696;29;20392;-83
2022/08/08 09:22:25;;;;;;;10.52;8.35;;;;;;;27.79;54.22;101238.16;4939598;28;20048;-86
2022/08/08 09:24:54;;;;;;;11.93;10.82;;;;;;;28.43;53.75;101320.22;4944089;29;20139;-84
2022/08/08 09:27:21;;;;;;;15.43;10.02;;;;;;;28.42;53.41;101333.00;4927969;29;20056;-84
2022/08/08 09:30:13;;;;;;;12.40;10.55;;;;;;;28.50;52.72;101319.06;4925941;29;20048;-84
2022/08/08 09:32:46;;;;;;;11.25;8.30;;;;;;;28.42;52.90;101324.00;4927770;29;20052;-85
2022/08/08 09:35:33;;;;;;;9.10;8.20;;;;;;;28.36;52.46;101320.34;4931444;29;20047;-84
2022/08/08 09:38:03;;;;;;;9.18;7.90;;;;;;;28.34;52.04;101300.63;4946551;28;20139;-85
2022/08/08 09:40:40;;;;;;;8.93;8.10;;;;;;;27.57;52.31;101181.44;4931020;29;20490;-84
2022/08/08 09:43:27;;;;;;;9.82;8.73;;;;;;;27.89;53.06;101242.00;4945303;28;20565;-85
2022/08/08 09:46:15;;;;;;;11.35;10.15;;;;;;;27.65;53.40;101199.38;4931153;29;20181;-83
2022/08/08 09:48:58;;;;;;;14.98;13.38;;;;;;;27.90;52.62;101218.28;4932915;29;20055;-83
2022/08/08 09:51:54;;;;;;;14.13;11.25;;;;;;;28.29;52.96;101304.06;4947485;28;20075;-85
2022/08/08 09:54:42;;;;;;;13.63;12.25;;;;;;;28.28;53.23;101313.34;4933201;29;20055;-85
2022/08/08 09:57:13;;;;;;;12.00;10.82;;;;;;;27.97;53.31;101267.28;4946134;29;20044;-85
2022/08/08 09:59:44;;;;;;;12.27;10.73;;;;;;;28.26;53.34;101299.09;4946481;29;20139;-83
2022/08/08 10:02:35;;;;;;;16.02;11.13;;;;;;;28.36;52.33;101305.84;4940845;28;20059;-84
2022/08/08 10:05:24;;;;;;;;;;;;;;;28.48;52.81;101312.16;4943986;28;20086;-84
2022/08/08 10:07:51;;;;;;;11.65;9.88;;;;;;;28.57;52.59;101310.75;4929551;29;19930;-84
2022/08/08 10:10:30;;;;;;;12.85;11.52;;;;;;;28.67;51.76;101304.69;4931084;29;20083;-83
2022/08/08 10:13:14;;;;;;;12.32;10.95;;;;;;;28.47;51.02;101251.28;4932002;28;20164;-84
2022/08/08 10:15:47;;;;;;;12.27;10.82;;;;;;;28.31;49.65;101224.66;4946703;28;20134;-85
2022/08/08 10:18:32;;;;;;;12.25;10.48;;;;;;;28.88;49.82;101314.13;4931461;29;20391;-84
2022/08/08 10:21:08;;;;;;;10.68;9.25;;;;;;;28.91;49.09;101289.03;4947045;28;20098;-82
2022/08/08 10:24:01;;;;;;;10.52;9.15;;;;;;;29.14;48.44;101271.78;4944993;29;20146;-84
2022/08/08 10:26:40;;;;;;;8.85;7.95;;;;;;;29.00;48.42;101223.91;4932494;29;20143;-84
2022/08/08 10:29:43;;;;;;;9.25;8.35;;;;;;;29.62;46.95;101289.59;4936023;29;20142;-84
2022/08/08 10:32:42;;;;;;;9.48;8.57;;;;;;;29.67;46.21;101277.97;4954366;29;20044;-84
2022/08/08 10:35:17;;;;;;;8.73;7.93;;;;;;;29.68;46.47;101255.81;4947939;29;20124;-86
2022/08/08 10:38:13;;;;;;;7.97;7.20;;;;;;;29.54;45.78;101186.06;4934181;29;20063;-87
2022/08/08 10:40:44;;;;;;;8.32;6.45;;;;;;;29.04;45.04;101081.03;4925296;29;20758;-82
2022/08/08 10:43:12;;;;;;;11.20;8.73;;;;;;;30.17;44.59;101266.16;4911065;29;20059;-83
2022/08/08 10:45:45;;;;;;;7.57;6.70;;;;;;;29.41;44.24;101143.47;4928397;29;20274;-84
2022/08/08 10:48:36;;;;;;;10.05;7.38;;;;;;;29.67;44.34;101199.44;4925943;29;20426;-84
2022/08/08 10:51:25;;;;;;;8.38;7.07;;;;;;;29.96;44.58;101249.44;4911769;29;20058;-84
2022/08/08 10:53:57;;;;;;;7.30;6.60;;;;;;;30.02;43.64;101277.69;4911586;29;20072;-84
2022/08/08 10:56:34;;;;;;;7.70;6.90;;;;;;;30.01;43.08;101281.53;4927532;29;20048;-85
2022/08/08 10:59:09;;;;;;;9.05;6.85;;;;;;;29.75;43.78;101239.22;4922355;29;20048;-84
2022/08/08 11:01:45;;;;;;;7.97;6.78;;;;;;;29.93;44.42;101273.72;4929909;29;20059;-84
2022/08/08 11:04:20;;;;;;;7.05;6.35;;;;;;;29.68;43.77;101233.09;4929777;29;20059;-86
2022/08/08 11:07:04;;;;;;;6.45;5.63;;;;;;;29.69;43.58;101240.25;4930252;29;20115;-83
2022/08/08 11:09:32;;;;;;;6.50;5.95;;;;;;;29.96;43.73;101257.63;4945294;29;20060;-84
2022/08/08 11:12:01;;;;;;;7.95;6.22;;;;;;;30.02;42.98;101259.34;4929639;29;20055;-84
2022/08/08 11:14:56;;;;;;;7.50;6.68;;;;;;;29.87;42.29;101245.44;4929024;29;20059;-84
2022/08/08 11:17:25;;;;;;;6.35;5.75;;;;;;;28.68;42.69;101044.91;4947069;28;20051;-84
2022/08/08 11:20:15;;;;;;;8.90;6.70;;;;;;;29.25;42.69;101138.81;4928871;29;20079;-82
2022/08/08 11:22:50;;;;;;;6.57;5.47;;;;;;;30.04;41.89;101240.78;4930140;29;20053;-84
2022/08/08 11:25:30;;;;;;;7.88;5.95;;;;;;;29.08;41.86;101052.19;4944369;28;20051;-85
2022/08/08 11:28:22;;;;;;;6.18;5.57;;;;;;;30.64;41.78;101252.06;4928731;29;20162;-86
2022/08/08 11:30:56;;;;;;;6.15;5.65;;;;;;;31.09;40.32;101248.19;4929495;29;20055;-83
2022/08/08 11:33:26;;;;;;;6.45;5.85;;;;;;;31.47;39.77;101254.66;4946001;29;20474;-83
2022/08/08 11:36:13;;;;;;;6.88;6.28;;;;;;;31.09;38.85;101133.03;4916550;29;20052;-84
2022/08/08 11:38:46;;;;;;;7.43;5.10;;;;;;;31.54;37.90;101166.66;4929232;29;20056;-84
2022/08/08 11:41:23;;;;;;;9.07;6.40;;;;;;;31.70;37.53;101144.53;4942709;29;20106;-83
2022/08/08 11:43:53;;;;;;;6.70;5.95;;;;;;;32.74;36.84;101251.13;4943510;28;20142;-84
2022/08/08 11:46:25;;;;;;;6.30;5.63;;;;;;;32.71;36.66;101235.19;4943245;29;20083;-83
2022/08/08 11:48:57;;;;;;;5.82;5.22;;;;;;;32.38;36.83;101171.25;4942923;29;20486;-85
2022/08/08 11:51:25;;;;;;;6.28;5.68;;;;;;;32.89;36.13;101209.94;4945519;29;20522;-83
2022/08/08 11:54:07;;;;;;;7.15;6.45;;;;;;;32.89;35.79;101185.19;4950174;28;20052;-83
2022/08/08 11:56:54;;;;;;;6.60;6.10;;;;;;;32.05;35.18;101036.00;4930667;29;20056;-83
2022/08/08 11:59:31;;;;;;;6.25;5.75;;;;;;;32.80;35.18;101156.59;4943960;28;20056;-83
2022/08/08 12:02:19;;;;;;;5.85;5.35;;;;;;;33.10;35.58;101182.50;4931472;29;20070;-84
2022/08/08 12:05:09;;;;;;;6.35;5.85;;;;;;;33.21;35.00;101200.69;4941598;29;20413;-84
2022/08/08 12:07:50;;;;;;;5.57;5.07;;;;;;;33.29;35.05;101219.38;4943880;29;20052;-86
2022/08/08 12:10:23;;;;;;;5.70;5.20;;;;;;;32.82;35.09;101132.41;4944354;29;20056;-84
2022/08/08 12:13:09;;;;;;;6.07;5.47;;;;;;;33.34;34.70;101205.63;4944608;28;20059;-85
2022/08/08 12:15:38;;;;;;;6.32;5.72;;;;;;;33.13;35.05;101157.19;4944385;28;20509;-85
2022/08/08 12:18:22;;;;;;;5.80;5.30;;;;;;;33.22;34.78;101163.81;4928471;29;20249;-80
2022/08/08 12:20:52;;;;;;;7.75;6.47;;;;;;;33.45;34.88;101162.44;4944625;29;20063;-84
2022/08/08 12:23:28;;;;;;;5.88;5.38;;;;;;;33.81;34.16;101199.03;4944272;29;20062;-83
2022/08/08 12:26:14;;;;;;;6.70;6.10;;;;;;;33.47;34.55;101154.72;4942375;29;20139;-83
2022/08/08 12:28:54;;;;;;;8.77;5.90;;;;;;;33.68;34.68;101201.53;4942439;28;20060;-85
2022/08/08 12:31:33;;;;;;;5.93;5.32;;;;;;;33.47;34.79;101203.44;4944541;29;20524;-84
2022/08/08 12:34:33;;;;;;;13.10;5.88;;;;;;;33.31;35.32;101192.44;4943969;28;20075;-86
2022/08/08 12:37:06;;;;;;;8.48;5.80;;;;;;;32.53;35.47;101097.16;4947593;29;20055;-83